Time;durP1;ratioP1;P1;durP2;ratioP2;P2;SDS_P1;SDS_P2;PMS_P1;PMS_P2;Temp;Humidity;BMP_temperature;BMP_pressure;BME280_temperature;BME280_humidity;BME280_pressure;Samples;Min_cycle;Max_cycle;Signal;HPM_P1;HPM_P2
2020/12/02 00:01:54;;;;;;;22.58;12.70;;;;;;;0.66;100.00;102870.44;2578866;55;20139;-74
2020/12/02 00:04:22;;;;;;;23.87;12.20;;;;;;;0.64;100.00;102866.94;2579112;55;20544;-73
2020/12/02 00:06:50;;;;;;;19.60;11.48;;;;;;;0.65;100.00;102873.94;2578943;55;20169;-73
2020/12/02 00:09:20;;;;;;;23.95;11.60;;;;;;;0.67;100.00;102869.56;2578939;55;20667;-74
2020/12/02 00:11:51;;;;;;;24.23;10.93;;;;;;;0.70;100.00;102876.56;2578776;55;20109;-73
2020/12/02 00:14:24;;;;;;;20.70;11.18;;;;;;;0.71;100.00;102872.22;2578899;55;20127;-74
2020/12/02 00:16:52;;;;;;;21.37;12.52;;;;;;;0.69;100.00;102872.19;2578773;55;20503;-75
2020/12/02 00:19:20;;;;;;;22.13;12.07;;;;;;;0.66;100.00;102875.69;2578866;55;20124;-75
2020/12/02 00:22:04;;;;;;;20.48;11.00;;;;;;;0.71;100.00;102872.22;2578748;55;20722;-75
2020/12/02 00:24:34;;;;;;;19.90;11.32;;;;;;;0.69;100.00;102875.69;2578797;55;20122;-73
2020/12/02 00:27:05;;;;;;;21.55;11.18;;;;;;;0.72;100.00;102887.09;2578768;55;20503;-73
2020/12/02 00:29:32;;;;;;;21.05;10.52;;;;;;;0.72;100.00;102881.84;2578771;55;20139;-73
2020/12/02 00:31:59;;;;;;;19.98;10.80;;;;;;;0.72;100.00;102876.59;2578767;55;20485;-75
2020/12/02 00:34:27;;;;;;;22.55;11.25;;;;;;;0.72;100.00;102872.19;2578733;55;20559;-73
2020/12/02 00:36:54;;;;;;;19.75;11.23;;;;;;;0.73;100.00;102873.06;2579043;55;20105;-74
2020/12/02 00:39:22;;;;;;;19.08;10.35;;;;;;;0.73;100.00;102884.44;2578815;55;20139;-75
2020/12/02 00:41:49;;;;;;;20.40;12.18;;;;;;;0.68;100.00;102870.44;2578696;55;20132;-73
2020/12/02 00:44:18;;;;;;;22.27;11.88;;;;;;;0.68;100.00;102876.56;2578554;55;20109;-75
2020/12/02 00:46:47;;;;;;;18.37;10.65;;;;;;;0.68;100.00;102870.44;2578793;55;20496;-73
2020/12/02 00:49:16;;;;;;;17.08;10.23;;;;;;;0.67;100.00;102874.81;2578812;55;20123;-73
2020/12/02 00:51:44;;;;;;;18.58;10.15;;;;;;;0.66;100.00;102873.06;2578631;55;20117;-73
2020/12/02 00:54:12;;;;;;;20.83;11.05;;;;;;;0.63;100.00;102873.06;2578897;55;20523;-75
2020/12/02 00:56:45;;;;;;;19.62;10.93;;;;;;;0.64;100.00;102879.19;2578624;55;20121;-73
2020/12/02 00:59:20;;;;;;;19.30;11.52;;;;;;;0.63;100.00;102870.44;2578613;55;20109;-73
2020/12/02 01:01:57;;;;;;;19.90;11.60;;;;;;;0.62;100.00;102876.56;2578869;55;20109;-75
2020/12/02 01:04:25;;;;;;;17.62;9.93;;;;;;;0.58;100.00;102880.03;2578845;55;20121;-73
2020/12/02 01:06:54;;;;;;;19.23;11.25;;;;;;;0.55;100.00;102869.53;2578812;55;20101;-73
2020/12/02 01:09:22;;;;;;;20.88;11.00;;;;;;;0.47;100.00;102868.66;2578691;55;20116;-73
2020/12/02 01:11:53;;;;;;;17.60;10.27;;;;;;;0.50;100.00;102881.78;2578642;55;20121;-75
2020/12/02 01:14:25;;;;;;;20.10;10.83;;;;;;;0.46;100.00;102877.41;2578893;55;20098;-73
2020/12/02 01:16:55;;;;;;;19.25;10.15;;;;;;;0.45;100.00;102889.69;2578815;55;20823;-75
2020/12/02 01:19:24;;;;;;;18.45;11.27;;;;;;;0.44;100.00;102879.16;2578595;55;20121;-74
2020/12/02 01:21:55;;;;;;;21.05;11.73;;;;;;;0.41;100.00;102880.91;2578493;55;20121;-74
2020/12/02 01:24:27;;;;;;;17.40;10.85;;;;;;;0.40;100.00;102881.78;2578819;55;20117;-75
2020/12/02 01:27:02;;;;;;;19.62;11.50;;;;;;;0.37;100.00;102873.87;2578710;55;20135;-74
2020/12/02 01:29:30;;;;;;;21.45;10.32;;;;;;;0.34;100.00;102886.12;2578925;55;20578;-74
2020/12/02 01:31:59;;;;;;;19.33;10.80;;;;;;;0.31;100.00;102892.28;2573631;55;20105;-73
2020/12/02 01:34:28;;;;;;;20.17;11.77;;;;;;;0.20;100.00;102878.22;2578529;55;20129;-73
2020/12/02 01:37:09;;;;;;;17.60;11.82;;;;;;;0.23;100.00;102883.50;2578738;55;20520;-73
2020/12/02 01:39:44;;;;;;;20.00;10.77;;;;;;;0.19;100.00;102886.97;2578760;55;20106;-75
2020/12/02 01:42:12;;;;;;;20.20;11.57;;;;;;;0.13;100.00;102893.97;2578405;55;20113;-75
2020/12/02 01:44:41;;;;;;;23.50;11.93;;;;;;;0.09;100.00;102897.41;2578682;55;20645;-75
2020/12/02 01:47:20;;;;;;;20.52;11.88;;;;;;;0.12;100.00;102900.09;2578594;55;20131;-74
2020/12/02 01:50:00;;;;;;;19.80;10.60;;;;;;;0.04;100.00;102893.91;2578856;55;20132;-75
2020/12/02 01:53:02;;;;;;;24.63;12.83;;;;;;;0.10;100.00;102896.59;2578464;55;20127;-75
2020/12/02 01:55:36;;;;;;;19.77;10.77;;;;;;;0.01;100.00;102899.16;2578564;55;20109;-75
2020/12/02 01:58:15;;;;;;;19.65;11.07;;;;;;;-0.05;100.00;102899.12;2578461;55;20113;-74
2020/12/02 02:00:52;;;;;;;22.08;12.25;;;;;;;-0.10;100.00;102906.97;2578629;55;20110;-73
2020/12/02 02:03:21;;;;;;;23.23;11.73;;;;;;;-0.11;100.00;102906.97;2578510;55;20110;-75
2020/12/02 02:05:56;;;;;;;21.25;11.45;;;;;;;-0.09;100.00;102913.97;2578487;55;20109;-73
2020/12/02 02:08:25;;;;;;;19.67;11.32;;;;;;;-0.15;100.00;102909.59;2578531;55;20135;-75
2020/12/02 02:10:54;;;;;;;20.48;11.57;;;;;;;-0.17;100.00;102906.06;2578575;55;20113;-76
2020/12/02 02:13:53;;;;;;;22.42;12.15;;;;;;;-0.08;100.00;102920.12;2578447;55;20121;-75
2020/12/02 02:16:25;;;;;;;20.50;11.63;;;;;;;-0.26;100.00;102900.78;2578550;55;20120;-75
2020/12/02 02:18:52;;;;;;;21.40;12.00;;;;;;;-0.15;100.00;102930.56;2578396;55;20105;-74
2020/12/02 02:21:22;;;;;;;21.90;12.80;;;;;;;-0.15;100.00;102922.69;2578384;55;20135;-73
2020/12/02 02:23:50;;;;;;;22.33;12.25;;;;;;;-0.19;100.00;102910.44;2578301;55;20120;-74
2020/12/02 02:26:31;;;;;;;26.17;12.05;;;;;;;-0.15;100.00;102927.06;2578475;55;20223;-73
2020/12/02 02:29:05;;;;;;;20.17;12.05;;;;;;;-0.15;100.00;102927.06;2578385;55;20512;-74
2020/12/02 02:31:38;;;;;;;25.02;12.77;;;;;;;-0.18;100.00;102924.44;2578639;55;20658;-74
2020/12/02 02:34:08;;;;;;;21.62;12.85;;;;;;;-0.19;100.00;102923.56;2578318;55;20161;-73
2020/12/02 02:36:35;;;;;;;22.83;12.65;;;;;;;-0.23;100.00;102936.66;2578418;55;20208;-74
2020/12/02 02:39:04;;;;;;;20.55;11.70;;;;;;;-0.26;100.00;102931.37;2578543;55;20115;-73
2020/12/02 02:41:33;;;;;;;22.65;11.18;;;;;;;-0.22;100.00;102938.41;2578247;55;20544;-73
2020/12/02 02:44:01;;;;;;;22.08;14.00;;;;;;;-0.28;100.00;102932.25;2578251;55;20110;-75
2020/12/02 02:46:28;;;;;;;22.55;12.98;;;;;;;-0.30;100.00;102939.25;2578320;55;20113;-74
2020/12/02 02:48:56;;;;;;;21.20;12.30;;;;;;;-0.30;100.00;102936.62;2578417;55;20647;-74
2020/12/02 02:51:23;;;;;;;19.20;11.25;;;;;;;-0.35;100.00;102938.34;2578420;55;20127;-73
2020/12/02 02:53:50;;;;;;;24.30;13.20;;;;;;;-0.40;100.00;102939.16;2578299;55;20109;-75
2020/12/02 02:56:18;;;;;;;25.33;13.95;;;;;;;-0.45;100.00;102934.78;2578177;55;20150;-74
2020/12/02 02:58:46;;;;;;;25.67;13.50;;;;;;;-0.47;100.00;102943.50;2578316;55;20113;-74
2020/12/02 03:05:15;;;;;;;21.80;12.50;;;;;;;-0.51;100.00;102942.59;2578418;55;20117;-73
2020/12/02 03:07:44;;;;;;;23.52;12.73;;;;;;;-0.57;100.00;102934.69;2578866;55;20545;-73
2020/12/02 03:10:15;;;;;;;28.75;14.23;;;;;;;-0.60;100.00;102934.66;2579175;55;20118;-74
2020/12/02 03:12:44;;;;;;;27.73;16.50;;;;;;;-0.61;100.00;102939.03;2578928;55;20113;-75
2020/12/02 03:15:12;;;;;;;28.23;14.57;;;;;;;-0.64;100.00;102932.88;2579019;55;20121;-73
2020/12/02 03:17:40;;;;;;;27.20;14.95;;;;;;;-0.66;100.00;102932.00;2579073;55;20121;-74
2020/12/02 03:20:15;;;;;;;25.23;14.20;;;;;;;-0.75;100.00;102924.91;2579015;55;20701;-75
2020/12/02 03:22:43;;;;;;;31.23;18.75;;;;;;;-0.78;100.00;102930.16;2578909;55;20516;-76
2020/12/02 03:25:16;;;;;;;28.40;16.27;;;;;;;-0.78;100.00;102928.41;2578955;55;20164;-76
2020/12/02 03:27:43;;;;;;;26.35;14.90;;;;;;;-0.80;100.00;102926.66;2578959;55;20125;-75
2020/12/02 03:30:12;;;;;;;24.27;14.25;;;;;;;-0.84;100.00;102930.97;2579019;55;20110;-76
2020/12/02 03:32:39;;;;;;;24.85;12.65;;;;;;;-0.86;100.00;102932.72;2578909;55;20176;-73
2020/12/02 03:35:07;;;;;;;25.73;13.30;;;;;;;-0.88;100.00;102939.69;2579083;55;20124;-74
2020/12/02 03:37:34;;;;;;;25.15;13.57;;;;;;;-0.89;100.00;102935.31;2578997;55;20123;-75
2020/12/02 03:40:02;;;;;;;23.42;12.90;;;;;;;-0.93;100.00;102937.03;2579056;55;20109;-74
2020/12/02 03:42:30;;;;;;;22.87;12.55;;;;;;;-0.93;100.00;102944.91;2578930;55;20117;-75
2020/12/02 03:44:57;;;;;;;23.85;13.70;;;;;;;-0.92;100.00;102945.75;2578835;55;20635;-75
2020/12/02 03:47:25;;;;;;;23.87;13.05;;;;;;;-0.95;100.00;102937.88;2578945;55;20113;-75
2020/12/02 03:49:53;;;;;;;23.90;13.13;;;;;;;-1.05;100.00;102919.44;2579157;55;20669;-75
2020/12/02 03:52:20;;;;;;;23.77;13.50;;;;;;;-0.96;100.00;102938.75;2578749;55;20131;-74
2020/12/02 03:54:47;;;;;;;24.80;14.23;;;;;;;-1.01;100.00;102933.47;2578914;55;20157;-74
2020/12/02 03:57:15;;;;;;;22.02;13.10;;;;;;;-1.04;100.00;102938.69;2578905;55;20677;-74
2020/12/02 03:59:42;;;;;;;28.85;14.23;;;;;;;-1.06;100.00;102938.66;2579097;55;20173;-75
2020/12/02 04:02:10;;;;;;;23.98;13.75;;;;;;;-1.11;100.00;102940.34;2578869;55;20105;-75
2020/12/02 04:04:38;;;;;;;25.25;13.82;;;;;;;-1.09;100.00;102943.00;2578910;55;20120;-75
2020/12/02 04:07:05;;;;;;;28.15;14.02;;;;;;;-1.12;100.00;102944.72;2579015;55;20664;-75
2020/12/02 04:09:32;;;;;;;24.92;14.57;;;;;;;-1.15;100.00;102943.81;2579027;55;20397;-73
2020/12/02 04:12:00;;;;;;;24.85;14.05;;;;;;;-1.08;100.00;102947.34;2578512;55;20131;-75
2020/12/02 04:14:27;;;;;;;31.27;15.25;;;;;;;-1.10;100.00;102955.22;2578780;55;20113;-75
2020/12/02 04:16:55;;;;;;;27.13;15.00;;;;;;;-1.06;100.00;102956.09;2578251;55;20113;-74
2020/12/02 04:19:22;;;;;;;26.65;13.23;;;;;;;-1.10;100.00;102960.47;2572793;55;20626;-74
2020/12/02 04:21:50;;;;;;;26.17;13.35;;;;;;;-1.05;100.00;102955.25;2578370;55;20113;-73
2020/12/02 04:24:17;;;;;;;25.42;12.68;;;;;;;-1.09;100.00;102956.09;2577872;55;20101;-73
2020/12/02 04:26:46;;;;;;;26.02;15.63;;;;;;;-1.07;100.00;102965.72;2578326;55;20101;-76
2020/12/02 04:29:13;;;;;;;23.02;12.27;;;;;;;-1.07;100.00;102968.34;2578579;55;20109;-76
2020/12/02 04:31:40;;;;;;;27.60;13.88;;;;;;;-1.05;100.00;102965.72;2578391;55;20127;-74
2020/12/02 04:34:08;;;;;;;22.80;12.55;;;;;;;-1.04;100.00;102963.13;2578351;55;20113;-75
2020/12/02 04:36:35;;;;;;;27.75;16.12;;;;;;;-1.01;100.00;102976.25;2578308;55;20131;-75
2020/12/02 04:39:05;;;;;;;22.85;12.45;;;;;;;-1.01;100.00;102963.16;2578240;55;20102;-76
2020/12/02 04:41:33;;;;;;;43.05;27.15;;;;;;;-1.01;100.00;102962.28;2577436;55;20612;-73
2020/12/02 04:44:01;;;;;;;29.67;16.87;;;;;;;-0.99;100.00;102976.28;2577874;55;20626;-75
2020/12/02 04:46:33;;;;;;;26.55;13.23;;;;;;;-1.00;100.00;102975.41;2577558;55;20114;-76
2020/12/02 04:49:04;;;;;;;24.30;13.27;;;;;;;-0.98;100.00;102978.94;2577180;55;20105;-76
2020/12/02 04:51:31;;;;;;;22.77;12.80;;;;;;;-0.98;100.00;102981.53;2577508;55;20161;-73
2020/12/02 04:53:59;;;;;;;21.25;12.68;;;;;;;-1.04;100.00;102965.75;2577765;55;20127;-73
2020/12/02 04:56:28;;;;;;;19.77;10.23;;;;;;;-0.93;100.00;102983.31;2577618;55;20636;-73
2020/12/02 04:58:57;;;;;;;18.95;11.07;;;;;;;-0.91;100.00;102978.97;2577794;55;20124;-77
2020/12/02 05:01:28;;;;;;;23.17;11.95;;;;;;;-0.95;100.00;102977.19;2576016;55;20117;-76
2020/12/02 05:04:00;;;;;;;27.50;12.70;;;;;;;-0.93;100.00;102980.69;2573432;55;20105;-77
2020/12/02 05:06:32;;;;;;;23.83;12.73;;;;;;;-0.95;100.00;102978.09;2573606;55;20105;-77
2020/12/02 05:09:18;;;;;;;21.25;12.00;;;;;;;-0.92;100.00;102982.44;2571697;55;20129;-74
2020/12/02 05:11:59;;;;;;;21.05;11.73;;;;;;;-0.88;100.00;102990.34;2570851;55;20110;-71
2020/12/02 05:14:33;;;;;;;24.85;12.27;;;;;;;-0.93;100.00;102991.19;2570986;55;20510;-73
2020/12/02 05:17:10;;;;;;;22.70;12.27;;;;;;;-0.93;100.00;102994.69;2570786;55;20514;-74
2020/12/02 05:19:37;;;;;;;22.15;12.05;;;;;;;-0.91;100.00;102997.31;2570735;55;20125;-73
2020/12/02 05:22:10;;;;;;;23.92;13.70;;;;;;;-0.92;100.00;102995.56;2570635;55;20117;-73
2020/12/02 05:24:49;;;;;;;25.10;12.70;;;;;;;-0.84;100.00;102996.50;2565830;55;20129;-73
2020/12/02 05:27:21;;;;;;;26.77;13.70;;;;;;;-0.86;100.00;102991.25;2569060;55;20133;-73
2020/12/02 05:29:54;;;;;;;26.42;13.20;;;;;;;-0.86;100.00;102993.00;2574443;55;20133;-73
2020/12/02 05:32:25;;;;;;;25.45;12.80;;;;;;;-0.84;100.00;102996.50;2575146;55;20122;-72
2020/12/02 05:34:53;;;;;;;25.88;12.75;;;;;;;-0.90;100.00;102980.72;2575796;55;20120;-72
2020/12/02 05:37:29;;;;;;;21.77;12.45;;;;;;;-0.79;100.00;102994.84;2575709;55;20131;-72
2020/12/02 05:40:02;;;;;;;24.92;13.43;;;;;;;-0.86;100.00;102982.53;2576031;55;20121;-72
2020/12/02 05:42:35;;;;;;;22.42;12.88;;;;;;;-0.79;100.00;102999.19;2576027;55;20529;-73
2020/12/02 05:45:11;;;;;;;27.10;12.85;;;;;;;-0.78;100.00;102993.97;2575693;55;20231;-73
2020/12/02 05:47:39;;;;;;;32.90;17.50;;;;;;;-0.82;100.00;102994.78;2575828;55;20132;-72
2020/12/02 05:50:09;;;;;;;28.85;15.52;;;;;;;-0.89;100.00;102982.50;2575908;55;20125;-73
2020/12/02 05:52:38;;;;;;;23.55;13.68;;;;;;;-0.83;100.00;102990.41;2575819;55;20663;-73
2020/12/02 05:55:14;;;;;;;24.73;14.40;;;;;;;-0.99;100.00;102971.94;2576113;55;20125;-72
2020/12/02 05:57:53;;;;;;;24.40;13.52;;;;;;;-0.75;100.00;103007.09;2575708;55;20105;-72
2020/12/02 06:00:21;;;;;;;22.80;13.88;;;;;;;-0.79;100.00;103015.81;2576084;55;20135;-73
2020/12/02 06:02:51;;;;;;;27.10;14.70;;;;;;;-0.80;100.00;103021.03;2575838;55;20128;-72
2020/12/02 06:05:20;;;;;;;24.92;13.80;;;;;;;-0.79;100.00;103030.63;2575808;55;20673;-72
2020/12/02 06:07:51;;;;;;;28.85;13.48;;;;;;;-0.80;100.00;103023.63;2575727;55;20122;-72
2020/12/02 06:10:25;;;;;;;27.15;14.70;;;;;;;-0.78;100.00;103033.28;2575468;55;20132;-73
2020/12/02 06:12:53;;;;;;;24.37;13.68;;;;;;;-0.82;100.00;103031.47;2575894;55;20127;-72
2020/12/02 06:15:23;;;;;;;24.80;13.02;;;;;;;-0.82;100.00;103034.09;2575715;55;20155;-72
2020/12/02 06:18:12;;;;;;;25.65;12.95;;;;;;;-0.79;100.00;103025.41;2575736;55;20923;-72
2020/12/02 06:20:44;;;;;;;26.17;14.30;;;;;;;-0.82;100.00;103025.38;2576113;55;20131;-73
2020/12/02 06:23:11;;;;;;;22.92;12.73;;;;;;;-0.78;100.00;103037.63;2575830;55;20151;-73
2020/12/02 06:25:51;;;;;;;25.02;13.95;;;;;;;-0.72;100.00;103045.56;2575873;55;20683;-71
2020/12/02 06:28:47;;;;;;;24.70;13.00;;;;;;;-0.72;100.00;103051.69;2575781;55;20133;-74
2020/12/02 06:31:24;;;;;;;26.27;13.27;;;;;;;-0.75;100.00;103049.03;2575860;55;20110;-72
2020/12/02 06:33:53;;;;;;;24.37;12.35;;;;;;;-0.76;100.00;103046.38;2575707;55;20124;-73
2020/12/02 06:36:25;;;;;;;24.80;13.27;;;;;;;-0.77;100.00;103052.50;2575822;55;20136;-73
2020/12/02 06:38:54;;;;;;;23.23;11.80;;;;;;;-0.78;100.00;103049.03;2575712;55;20635;-72
2020/12/02 06:41:35;;;;;;;28.60;13.23;;;;;;;-0.75;100.00;103046.41;2575632;55;20647;-73
2020/12/02 06:44:18;;;;;;;25.90;13.23;;;;;;;-0.85;100.00;103037.59;2576488;55;20109;-72
2020/12/02 06:47:11;;;;;;;22.80;12.65;;;;;;;-0.75;100.00;103049.03;2576643;55;20133;-73
2020/12/02 06:49:39;;;;;;;24.55;13.30;;;;;;;-0.83;100.00;103055.09;2570619;55;20139;-73
2020/12/02 06:52:09;;;;;;;24.90;12.35;;;;;;;-0.83;100.00;103063.81;2576514;55;20175;-73
2020/12/02 06:54:38;;;;;;;22.75;13.25;;;;;;;-0.85;100.00;103065.53;2576828;55;20141;-73
2020/12/02 06:57:17;;;;;;;26.92;13.23;;;;;;;-0.85;100.00;103063.81;2576338;55;20114;-72
2020/12/02 06:59:56;;;;;;;23.77;13.65;;;;;;;-0.81;100.00;103058.59;2576749;55;20112;-73
2020/12/02 07:02:35;;;;;;;28.65;15.68;;;;;;;-0.86;100.00;103055.91;2576243;55;20149;-73
2020/12/02 07:05:06;;;;;;;29.23;15.85;;;;;;;-0.89;100.00;103063.75;2576331;55;20117;-73
2020/12/02 07:07:34;;;;;;;36.72;19.37;;;;;;;-0.93;100.00;103059.34;2576356;55;20619;-73
2020/12/02 07:10:01;;;;;;;27.25;13.93;;;;;;;-0.93;100.00;103065.47;2576283;55;20524;-73
2020/12/02 07:12:31;;;;;;;26.15;13.75;;;;;;;-0.94;100.00;103074.19;2576418;55;20129;-73
2020/12/02 07:15:01;;;;;;;27.02;13.02;;;;;;;-0.95;100.00;103076.78;2571329;55;20121;-73
2020/12/02 07:17:29;;;;;;;28.48;15.63;;;;;;;-1.00;100.00;103079.34;2576324;55;20121;-72
2020/12/02 07:20:04;;;;;;;27.42;13.75;;;;;;;-0.99;100.00;103071.53;2576539;55;20116;-73
2020/12/02 07:22:36;;;;;;;24.67;12.95;;;;;;;-1.04;100.00;103078.44;2576200;55;20131;-73
2020/12/02 07:25:05;;;;;;;;;;;;;;;-0.86;100.00;103090.00;2576720;55;20651;-73
2020/12/02 07:27:33;;;;;;;22.13;11.85;;;;;;;-1.05;100.00;103089.78;2576416;55;20536;-73
2020/12/02 07:30:05;;;;;;;24.15;12.77;;;;;;;-1.12;100.00;103095.81;2576376;55;20129;-72
2020/12/02 07:32:32;;;;;;;28.65;14.10;;;;;;;-1.18;100.00;103093.12;2576055;55;20123;-73
2020/12/02 07:35:01;;;;;;;23.85;12.68;;;;;;;-1.23;100.00;103100.03;2576149;55;20114;-74
2020/12/02 07:37:28;;;;;;;28.85;14.35;;;;;;;-1.26;100.00;103087.78;2576139;55;20142;-73
2020/12/02 07:39:58;;;;;;;27.23;14.18;;;;;;;-1.36;100.00;103091.13;2576269;55;20682;-74
2020/12/02 07:42:30;;;;;;;24.73;13.18;;;;;;;-1.38;100.00;103093.75;2576046;55;20161;-74
2020/12/02 07:45:06;;;;;;;26.90;13.68;;;;;;;-1.40;100.00;103090.25;2575738;55;20121;-73
2020/12/02 07:47:34;;;;;;;28.90;14.02;;;;;;;-1.43;100.00;103100.66;2576053;55;20125;-73
2020/12/02 07:50:10;;;;;;;30.30;14.25;;;;;;;-1.48;100.00;103089.25;2571041;55;20642;-73
2020/12/02 07:52:47;;;;;;;28.50;13.98;;;;;;;-1.45;100.00;103092.81;2576058;55;20121;-72
2020/12/02 07:55:19;;;;;;;23.67;12.93;;;;;;;-1.50;100.00;103088.31;2576649;55;20113;-74
2020/12/02 07:57:49;;;;;;;27.13;12.80;;;;;;;-1.49;100.00;103100.59;2577527;55;20155;-73
2020/12/02 08:00:27;;;;;;;26.85;12.93;;;;;;;-1.50;100.00;103099.69;2578793;55;20136;-75
2020/12/02 08:02:55;;;;;;;29.65;13.43;;;;;;;-1.55;100.00;103111.88;2578784;55;20118;-73
2020/12/02 08:05:32;;;;;;;25.65;13.52;;;;;;;-1.49;100.00;103111.06;2578829;55;20113;-75
2020/12/02 08:08:00;;;;;;;25.50;12.73;;;;;;;-1.54;100.00;103109.25;2578823;55;20110;-73
2020/12/02 08:10:32;;;;;;;25.73;12.43;;;;;;;-1.51;100.00;103115.38;2578645;55;20142;-76
2020/12/02 08:13:04;;;;;;;28.77;14.32;;;;;;;-1.56;100.00;103105.72;2578701;55;20131;-75
2020/12/02 08:15:44;;;;;;;27.10;14.07;;;;;;;-1.44;100.00;103114.63;2578823;55;20130;-73
2020/12/02 08:18:14;;;;;;;27.58;13.77;;;;;;;-1.52;100.00;103116.25;2578559;55;20121;-76
2020/12/02 08:20:44;;;;;;;26.70;13.70;;;;;;;-1.50;100.00;103112.78;2578895;55;20119;-74
2020/12/02 08:23:16;;;;;;;23.35;12.15;;;;;;;-1.47;100.00;103119.81;2578594;55;20117;-74
2020/12/02 08:25:51;;;;;;;;;;;;;;;-1.30;100.00;103122.66;2578892;55;20485;-77
2020/12/02 08:28:22;;;;;;;27.67;12.98;;;;;;;-1.42;100.00;103120.75;2578991;55;19992;-73
2020/12/02 08:31:00;;;;;;;32.67;14.38;;;;;;;-1.38;100.00;103119.06;2578833;55;20466;-74
2020/12/02 08:33:27;;;;;;;26.65;14.00;;;;;;;-1.42;100.00;103125.97;2578834;55;20133;-76
2020/12/02 08:36:05;;;;;;;25.70;13.80;;;;;;;-1.38;100.00;103125.19;2578758;55;20497;-73
2020/12/02 08:38:35;;;;;;;26.92;14.35;;;;;;;-1.54;100.00;103098.78;2578961;55;20158;-73
2020/12/02 08:41:04;;;;;;;26.67;14.05;;;;;;;-1.35;100.00;103119.97;2573735;55;20117;-74
2020/12/02 08:43:37;;;;;;;27.37;13.75;;;;;;;-1.33;100.00;103125.25;2578797;55;20113;-72
2020/12/02 08:46:15;;;;;;;23.92;12.57;;;;;;;-1.35;100.00;103119.97;2578730;55;20113;-73
2020/12/02 08:48:46;;;;;;;25.08;12.98;;;;;;;-1.32;100.00;103135.72;2578792;55;20105;-73
2020/12/02 08:51:18;;;;;;;23.87;13.82;;;;;;;-1.33;100.00;103126.12;2579047;55;20135;-73
2020/12/02 08:53:46;;;;;;;26.75;12.43;;;;;;;-1.32;100.00;103134.87;2578938;55;20481;-77
2020/12/02 08:56:42;;;;;;;23.65;12.80;;;;;;;-1.19;100.00;103136.78;2579019;55;20117;-73
2020/12/02 08:59:13;;;;;;;18.85;10.93;;;;;;;-1.31;99.29;103136.62;2563489;55;20815;-74
2020/12/02 09:01:41;;;;;;;18.63;11.13;;;;;;;-1.29;99.06;103130.56;2578936;55;20511;-78
2020/12/02 09:04:08;;;;;;;20.52;10.40;;;;;;;-1.40;99.49;103121.66;2578618;55;20123;-78
2020/12/02 09:06:36;;;;;;;20.52;11.45;;;;;;;-1.30;99.73;103139.28;2578642;55;20607;-72
2020/12/02 09:09:04;;;;;;;25.02;11.02;;;;;;;-1.27;99.48;103130.56;2578785;55;20113;-72
2020/12/02 09:11:33;;;;;;;17.00;9.63;;;;;;;-1.22;98.52;103138.47;2578715;55;20495;-77
2020/12/02 09:14:04;;;;;;;20.02;10.65;;;;;;;-1.26;98.64;103134.94;2578681;55;20109;-71
2020/12/02 09:16:34;;;;;;;18.92;9.38;;;;;;;-1.26;97.90;103135.81;2578663;55;20109;-76
2020/12/02 09:19:03;;;;;;;20.83;9.57;;;;;;;-1.29;98.44;103135.78;2578718;55;20554;-77
2020/12/02 09:21:30;;;;;;;18.25;9.70;;;;;;;-1.33;98.64;103139.22;2578664;55;20135;-72
2020/12/02 09:23:59;;;;;;;19.33;9.63;;;;;;;-1.34;98.27;103126.97;2578697;55;20651;-77
2020/12/02 09:26:29;;;;;;;16.00;8.80;;;;;;;-1.35;98.16;103135.69;2578710;55;20782;-77
2020/12/02 09:28:57;;;;;;;19.35;10.27;;;;;;;-1.33;99.07;103135.72;2578884;55;20110;-77
2020/12/02 09:31:28;;;;;;;22.30;10.02;;;;;;;-1.29;98.46;103141.03;2578705;55;20113;-72
2020/12/02 09:33:56;;;;;;;17.48;9.45;;;;;;;-1.27;98.05;103141.91;2578545;55;20124;-78
2020/12/02 09:36:24;;;;;;;18.67;10.68;;;;;;;-1.27;98.32;103136.69;2578732;55;20534;-73
2020/12/02 09:38:53;;;;;;;17.15;9.65;;;;;;;-1.21;98.79;103133.25;2578755;55;20504;-77
2020/12/02 09:41:33;;;;;;;16.85;10.55;;;;;;;-1.26;98.43;103127.97;2579004;55;20259;-73
2020/12/02 09:44:22;;;;;;;18.75;9.02;;;;;;;-1.16;98.38;103135.94;2578968;55;20535;-72
2020/12/02 09:46:57;;;;;;;18.90;9.73;;;;;;;-1.18;97.99;103150.78;2578542;55;20113;-73
2020/12/02 09:49:25;;;;;;;22.90;10.35;;;;;;;-1.17;98.22;103131.56;2578670;55;20129;-77
2020/12/02 09:52:05;;;;;;;17.40;9.75;;;;;;;-1.17;98.80;103136.81;2578750;55;20113;-74
2020/12/02 09:54:39;;;;;;;16.58;8.75;;;;;;;-1.16;98.01;103141.19;2578770;55;20116;-72
2020/12/02 09:57:15;;;;;;;14.90;9.02;;;;;;;-1.14;97.49;103147.31;2578867;55;20116;-77
2020/12/02 09:59:42;;;;;;;19.58;10.38;;;;;;;-1.16;97.32;103136.81;2578815;55;20116;-78
2020/12/02 10:02:29;;;;;;;18.08;10.18;;;;;;;-1.11;96.76;103134.25;2578554;55;20632;-77
2020/12/02 10:05:09;;;;;;;19.55;10.23;;;;;;;-1.15;97.50;103132.47;2578794;55;20131;-72
2020/12/02 10:07:51;;;;;;;16.12;9.00;;;;;;;-1.12;97.50;103142.97;2578748;55;20123;-72
2020/12/02 10:10:38;;;;;;;18.90;9.98;;;;;;;-1.15;97.12;103137.69;2578529;55;20122;-77
2020/12/02 10:13:45;;;;;;;17.17;9.65;;;;;;;-1.15;96.67;103137.69;2573248;55;20127;-77
2020/12/02 10:16:23;;;;;;;16.12;9.27;;;;;;;-1.23;97.29;103140.22;2567745;55;20499;-77
2020/12/02 10:19:08;;;;;;;20.58;10.43;;;;;;;-1.24;97.18;103135.84;2578764;55;20108;-78
2020/12/02 10:21:50;;;;;;;17.42;9.73;;;;;;;-1.29;98.11;103135.78;2578786;55;20110;-77
2020/12/02 10:24:32;;;;;;;20.95;11.07;;;;;;;-1.41;97.34;103115.53;2578728;55;20144;-73
2020/12/02 10:27:24;;;;;;;19.20;10.52;;;;;;;-1.32;97.71;103129.62;2578513;55;20105;-73
2020/12/02 10:30:14;;;;;;;17.48;9.80;;;;;;;-1.40;97.91;103127.78;2575291;55;20538;-72
2020/12/02 10:33:03;;;;;;;19.25;10.20;;;;;;;-1.42;97.82;103131.22;2578557;55;20109;-73
2020/12/02 10:35:34;;;;;;;19.35;10.02;;;;;;;-1.47;97.79;103132.91;2578240;55;20161;-72
2020/12/02 10:38:06;;;;;;;17.77;9.70;;;;;;;-1.45;98.29;103131.19;2578342;55;20136;-73
2020/12/02 10:40:39;;;;;;;20.30;10.43;;;;;;;-1.48;97.85;103139.88;2578538;55;20135;-77
2020/12/02 10:43:17;;;;;;;16.02;9.45;;;;;;;-1.48;97.88;103132.03;2578247;55;20119;-77
2020/12/02 10:45:48;;;;;;;18.15;9.05;;;;;;;-1.54;98.10;103129.34;2578387;55;20481;-73
2020/12/02 10:48:26;;;;;;;22.23;10.05;;;;;;;-1.57;98.10;103119.69;2578524;55;20117;-77
2020/12/02 10:50:55;;;;;;;20.60;10.82;;;;;;;-1.55;97.47;103136.28;2578338;55;20274;-77
2020/12/02 10:53:26;;;;;;;17.52;8.95;;;;;;;-1.63;97.29;103135.28;2578467;55;20110;-73
2020/12/02 10:55:54;;;;;;;15.07;8.95;;;;;;;-1.65;98.30;103133.50;2578388;55;20615;-72
2020/12/02 10:58:28;;;;;;;19.00;9.52;;;;;;;-1.61;98.06;103133.56;2578499;55;20534;-76
2020/12/02 11:00:58;;;;;;;18.55;9.63;;;;;;;-1.60;99.18;103129.22;2573348;55;20117;-70
2020/12/02 11:03:27;;;;;;;20.60;10.05;;;;;;;-1.65;98.28;103126.53;2578209;55;20120;-70
2020/12/02 11:06:17;;;;;;;27.75;12.75;;;;;;;-1.54;98.42;103127.56;2578252;55;20117;-77
2020/12/02 11:09:02;;;;;;;18.20;10.48;;;;;;;-1.58;97.83;103133.62;2578403;55;20136;-73
2020/12/02 11:11:42;;;;;;;27.05;10.90;;;;;;;-1.68;97.97;103132.59;2578280;55;20163;-76
2020/12/02 11:14:23;;;;;;;22.17;9.73;;;;;;;-1.66;98.28;103132.66;2578333;55;20150;-77
2020/12/02 11:16:58;;;;;;;30.73;13.02;;;;;;;-1.71;98.95;103126.44;2578296;55;20113;-78
2020/12/02 11:19:40;;;;;;;23.73;11.88;;;;;;;-1.63;98.44;103137.91;2578305;55;20574;-77
2020/12/02 11:22:25;;;;;;;16.73;9.48;;;;;;;-1.65;97.94;103136.13;2578350;55;20161;-78
2020/12/02 11:25:16;;;;;;;20.27;9.80;;;;;;;-1.61;98.12;103137.94;2578636;55;20607;-72
2020/12/02 11:27:45;;;;;;;25.88;12.25;;;;;;;-1.72;97.27;103132.53;2577455;55;20128;-73
2020/12/02 11:30:22;;;;;;;17.83;10.07;;;;;;;-1.76;98.13;103126.38;2579057;55;20571;-79
2020/12/02 11:33:26;;;;;;;22.20;11.18;;;;;;;-1.72;97.66;103135.16;2579112;55;20122;-72
2020/12/02 11:36:26;;;;;;;26.55;12.52;;;;;;;-1.75;97.95;103132.50;2579246;55;20124;-73